Time;durP1;ratioP1;P1;durP2;ratioP2;P2;SDS_P1;SDS_P2;PMS_P1;PMS_P2;Temp;Humidity;BMP_temperature;BMP_pressure;BME280_temperature;BME280_humidity;BME280_pressure;Samples;Min_cycle;Max_cycle;Signal;HPM_P1;HPM_P2
2023/10/05 00:01:05;;;;;;;9.93;5.65;;;;;;;;;;5069105;28;20033;-77
2023/10/05 00:03:30;;;;;;;8.57;5.28;;;;;;;;;;5073780;28;20032;-77
2023/10/05 00:06:05;;;;;;;18.38;5.93;;;;;;;;;;5078349;28;20461;-77
2023/10/05 00:08:35;;;;;;;9.73;5.18;;;;;;;;;;5087423;28;20093;-77
2023/10/05 00:11:01;;;;;;;17.42;6.93;;;;;;;;;;5078495;28;20099;-77
2023/10/05 00:13:26;;;;;;;14.20;6.53;;;;;;;;;;5065100;28;20135;-76
2023/10/05 00:15:51;;;;;;;23.98;6.97;;;;;;;;;;5080635;28;20060;-77
2023/10/05 00:18:20;;;;;;;13.30;6.47;;;;;;;;;;5082728;28;20492;-77
2023/10/05 00:20:48;;;;;;;16.70;6.43;;;;;;;;;;5089737;28;20050;-76
2023/10/05 00:23:13;;;;;;;15.82;6.70;;;;;;;;;;5081605;28;20187;-77
2023/10/05 00:25:39;;;;;;;17.67;6.10;;;;;;;;;;5080236;28;20032;-77
2023/10/05 00:28:09;;;;;;;14.23;6.10;;;;;;;;;;5059067;28;20083;-78
2023/10/05 00:30:35;;;;;;;7.30;4.95;;;;;;;;;;5083579;28;20044;-77
2023/10/05 00:33:00;;;;;;;11.63;5.38;;;;;;;;;;5082982;28;20032;-77
2023/10/05 00:35:28;;;;;;;14.63;6.07;;;;;;;;;;5083032;28;20095;-78
2023/10/05 00:37:57;;;;;;;9.05;5.00;;;;;;;;;;5085437;28;20078;-78
2023/10/05 00:40:34;;;;;;;13.15;4.68;;;;;;;;;;5059698;28;20049;-78
2023/10/05 00:43:39;;;;;;;10.82;4.90;;;;;;;;;;5081237;28;20134;-78
2023/10/05 00:45:58;;;;;;;12.18;4.78;;;;;;;;;;5078679;28;20033;-77
2023/10/05 00:48:41;;;;;;;9.95;5.10;;;;;;;;;;5085570;28;20025;-78
2023/10/05 00:51:13;;;;;;;8.10;4.35;;;;;;;;;;5061411;28;21266;-78
2023/10/05 00:53:47;;;;;;;17.17;5.55;;;;;;;;;;5087463;28;20322;-77
2023/10/05 00:56:12;;;;;;;12.13;5.80;;;;;;;;;;5089214;28;20044;-78
2023/10/05 00:58:48;;;;;;;164.35;12.73;;;;;;;;;;5059789;28;20033;-77
2023/10/05 01:01:24;;;;;;;16.80;6.53;;;;;;;;;;5076148;28;20394;-78
2023/10/05 01:06:32;;;;;;;12.02;6.45;;;;;;;;;;5085908;28;20032;-78
2023/10/05 01:09:04;;;;;;;11.48;5.97;;;;;;;;;;5086145;28;20019;-78
2023/10/05 01:11:42;;;;;;;9.40;5.30;;;;;;;;;;5079592;28;20107;-78
2023/10/05 01:14:08;;;;;;;10.10;4.88;;;;;;;;;;5077202;28;20028;-78
2023/10/05 01:16:34;;;;;;;10.07;5.13;;;;;;;;;;5061775;28;20028;-78
2023/10/05 01:19:07;;;;;;;8.93;4.82;;;;;;;;;;5082601;28;20047;-77
2023/10/05 01:21:37;;;;;;;19.05;5.10;;;;;;;;;;5085228;28;20563;-77
2023/10/05 01:24:04;;;;;;;9.45;4.97;;;;;;;;;;5077395;28;20500;-77
2023/10/05 01:26:31;;;;;;;8.07;4.75;;;;;;;;;;5083390;28;20037;-79
2023/10/05 01:28:57;;;;;;;13.90;6.22;;;;;;;;;;5079218;28;20491;-78
2023/10/05 01:31:23;;;;;;;14.30;6.47;;;;;;;;;;5062015;28;20042;-78
2023/10/05 01:33:48;;;;;;;44.03;7.95;;;;;;;;;;5077104;28;20416;-76
2023/10/05 01:36:19;;;;;;;14.30;6.47;;;;;;;;;;5066717;28;20878;-78
2023/10/05 01:38:45;;;;;;;13.10;5.88;;;;;;;;;;5067400;28;20050;-78
2023/10/05 01:41:11;;;;;;;10.23;5.95;;;;;;;;;;5058860;28;20040;-78
2023/10/05 01:43:42;;;;;;;13.52;6.43;;;;;;;;;;5082971;28;20041;-78
2023/10/05 01:46:10;;;;;;;16.42;6.60;;;;;;;;;;5090956;28;20148;-78
2023/10/05 01:48:36;;;;;;;15.02;6.05;;;;;;;;;;5061904;28;20034;-79
2023/10/05 01:51:08;;;;;;;11.90;5.82;;;;;;;;;;5061193;28;20024;-77
2023/10/05 01:53:33;;;;;;;13.82;6.30;;;;;;;;;;5083666;28;20043;-76
2023/10/05 01:55:59;;;;;;;11.70;6.20;;;;;;;;;;5067902;28;20441;-77
2023/10/05 01:58:27;;;;;;;23.05;6.32;;;;;;;;;;5080997;28;20025;-76
2023/10/05 02:00:54;;;;;;;9.48;5.97;;;;;;;;;;5080416;28;20028;-77
2023/10/05 02:03:23;;;;;;;11.73;5.90;;;;;;;;;;5077571;28;20497;-77
2023/10/05 02:05:49;;;;;;;16.63;8.77;;;;;;;;;;5078339;28;20023;-78
2023/10/05 02:08:14;;;;;;;18.25;8.35;;;;;;;;;;5078067;28;20393;-78
2023/10/05 02:10:40;;;;;;;20.20;10.13;;;;;;;;;;5079798;28;20029;-78
2023/10/05 02:13:11;;;;;;;20.52;10.40;;;;;;;;;;5077803;28;20040;-79
2023/10/05 02:15:39;;;;;;;21.83;10.13;;;;;;;;;;5080384;28;20032;-79
2023/10/05 02:18:13;;;;;;;18.50;8.73;;;;;;;;;;5063727;28;20028;-78
2023/10/05 02:20:41;;;;;;;20.90;9.32;;;;;;;;;;5084727;28;20467;-78
2023/10/05 02:23:23;;;;;;;17.98;7.68;;;;;;;;;;5076182;28;20032;-78
2023/10/05 02:25:54;;;;;;;23.58;9.23;;;;;;;;;;5066570;28;20527;-76
2023/10/05 02:28:25;;;;;;;62.33;9.73;;;;;;;;;;5084550;28;20036;-79
2023/10/05 02:30:51;;;;;;;24.80;7.80;;;;;;;;;;5082869;28;20052;-77
2023/10/05 02:33:20;;;;;;;15.88;5.97;;;;;;;;;;5052039;28;20118;-77
2023/10/05 02:35:48;;;;;;;11.65;6.22;;;;;;;;;;5082340;28;20450;-78
2023/10/05 02:38:18;;;;;;;106.05;10.00;;;;;;;;;;5079268;28;20029;-76
2023/10/05 02:40:46;;;;;;;10.55;5.03;;;;;;;;;;5069788;28;20031;-77
2023/10/05 02:43:14;;;;;;;31.08;6.60;;;;;;;;;;5061489;28;20113;-77
2023/10/05 02:45:40;;;;;;;13.43;5.40;;;;;;;;;;5094307;22;20036;-86
2023/10/05 02:48:06;;;;;;;9.55;4.63;;;;;;;;;;5058605;28;20127;-81
2023/10/05 02:50:32;;;;;;;13.55;6.13;;;;;;;;;;5059578;28;20455;-85
2023/10/05 02:53:03;;;;;;;47.08;7.70;;;;;;;;;;5077381;28;20062;-85
2023/10/05 02:55:35;;;;;;;11.73;6.05;;;;;;;;;;5077527;28;20291;-86
2023/10/05 02:58:01;;;;;;;12.07;6.35;;;;;;;;;;5039338;28;20108;-85
2023/10/05 03:00:27;;;;;;;12.55;5.95;;;;;;;;;;5057029;28;20548;-85
2023/10/05 03:02:53;;;;;;;11.00;6.75;;;;;;;;;;5057617;28;20036;-84
2023/10/05 03:05:18;;;;;;;13.95;6.55;;;;;;;;;;5057071;28;20036;-83
2023/10/05 03:07:47;;;;;;;250.93;17.58;;;;;;;;;;5056283;28;20029;-87
2023/10/05 03:10:16;;;;;;;15.30;5.20;;;;;;;;;;5056578;28;20092;-84
2023/10/05 03:12:41;;;;;;;10.13;5.07;;;;;;;;;;5056099;28;20036;-84
2023/10/05 03:15:08;;;;;;;13.18;5.47;;;;;;;;;;5056476;28;20053;-84
2023/10/05 03:17:36;;;;;;;21.27;6.75;;;;;;;;;;5037389;28;20029;-85
2023/10/05 03:20:08;;;;;;;15.95;7.68;;;;;;;;;;5056103;28;20044;-83
2023/10/05 03:22:34;;;;;;;20.67;8.40;;;;;;;;;;5056753;28;20037;-84
2023/10/05 03:24:59;;;;;;;16.65;7.88;;;;;;;;;;5056817;28;20021;-87
2023/10/05 03:27:25;;;;;;;13.25;7.38;;;;;;;;;;5056633;28;20392;-85
2023/10/05 03:29:52;;;;;;;25.60;9.60;;;;;;;;;;5056893;28;20108;-81
2023/10/05 03:32:19;;;;;;;14.10;7.88;;;;;;;;;;5057604;28;20037;-86
2023/10/05 03:34:55;;;;;;;16.00;8.32;;;;;;;;;;5057587;28;20353;-85
2023/10/05 03:37:22;;;;;;;23.85;8.15;;;;;;;;;;5056963;28;20527;-83
2023/10/05 03:42:21;;;;;;;22.42;10.48;;;;;;;;;;5061321;28;20120;-84
2023/10/05 03:45:00;;;;;;;22.17;10.73;;;;;;;;;;5043373;28;20116;-84
2023/10/05 03:47:25;;;;;;;27.13;11.27;;;;;;;;;;5043300;28;20048;-85
2023/10/05 03:49:56;;;;;;;28.73;9.48;;;;;;;;;;5060920;28;20039;-85
2023/10/05 03:52:22;;;;;;;20.25;10.13;;;;;;;;;;5043173;28;20732;-86
2023/10/05 03:54:47;;;;;;;21.50;10.68;;;;;;;;;;5059824;28;20033;-82
2023/10/05 03:57:13;;;;;;;25.70;10.27;;;;;;;;;;5042463;28;20389;-83
2023/10/05 03:59:39;;;;;;;20.80;10.57;;;;;;;;;;5061506;28;20079;-86
2023/10/05 04:02:09;;;;;;;21.92;9.60;;;;;;;;;;5064441;28;20048;-83
2023/10/05 04:04:37;;;;;;;14.77;9.13;;;;;;;;;;5062019;28;20124;-84
2023/10/05 04:07:03;;;;;;;20.52;10.18;;;;;;;;;;5053419;28;20033;-83
2023/10/05 04:09:30;;;;;;;16.70;9.05;;;;;;;;;;5074798;28;20037;-82
2023/10/05 04:11:56;;;;;;;19.52;8.55;;;;;;;;;;5078510;28;20119;-81
2023/10/05 04:14:22;;;;;;;20.02;8.18;;;;;;;;;;5055856;28;20035;-82
2023/10/05 04:16:48;;;;;;;19.50;7.65;;;;;;;;;;5072885;28;20032;-83
2023/10/05 04:19:14;;;;;;;12.18;7.43;;;;;;;;;;5076724;28;20158;-83
2023/10/05 04:21:40;;;;;;;12.63;6.30;;;;;;;;;;5063293;28;20480;-83
2023/10/05 04:24:06;;;;;;;16.08;7.32;;;;;;;;;;5063033;28;20035;-85
2023/10/05 04:26:37;;;;;;;130.63;12.82;;;;;;;;;;5063138;28;20025;-86
2023/10/05 04:29:08;;;;;;;15.10;6.55;;;;;;;;;;5080721;28;20025;-85
2023/10/05 04:31:36;;;;;;;16.10;5.97;;;;;;;;;;5062937;28;20082;-81
2023/10/05 04:34:05;;;;;;;8.98;5.43;;;;;;;;;;5080403;28;20032;-85
2023/10/05 04:36:31;;;;;;;10.07;5.03;;;;;;;;;;5081065;28;20029;-84
2023/10/05 04:38:56;;;;;;;8.38;5.15;;;;;;;;;;5065563;28;20024;-81
2023/10/05 04:41:28;;;;;;;8.57;4.57;;;;;;;;;;5082558;28;20040;-84
2023/10/05 04:43:55;;;;;;;9.60;4.78;;;;;;;;;;5082408;28;20032;-83
2023/10/05 04:46:20;;;;;;;15.00;5.05;;;;;;;;;;5083329;28;20032;-85
2023/10/05 04:48:55;;;;;;;10.13;4.72;;;;;;;;;;5082390;28;20038;-84
2023/10/05 04:51:28;;;;;;;12.15;6.28;;;;;;;;;;5063349;28;20024;-85
2023/10/05 04:53:58;;;;;;;57.45;8.07;;;;;;;;;;5083074;28;20112;-84
2023/10/05 04:59:23;;;;;;;19.38;7.35;;;;;;;;;;5072573;28;20040;-85
2023/10/05 05:07:09;;;;;;;18.83;7.95;;;;;;;;;;5082157;28;20048;-84
2023/10/05 05:09:38;;;;;;;13.35;8.23;;;;;;;;;;5081594;28;20523;-84
2023/10/05 05:12:08;;;;;;;23.33;8.75;;;;;;;;;;5080524;28;20070;-83
2023/10/05 05:14:41;;;;;;;21.50;7.93;;;;;;;;;;5073586;28;20029;-84
2023/10/05 05:17:10;;;;;;;14.80;7.70;;;;;;;;;;5078172;28;20040;-82
2023/10/05 05:19:36;;;;;;;13.65;6.45;;;;;;;;;;5074917;28;20059;-86
2023/10/05 05:22:05;;;;;;;14.07;7.38;;;;;;;;;;5058725;28;20044;-85
2023/10/05 05:24:32;;;;;;;22.92;8.38;;;;;;;;;;5057880;28;20029;-83
2023/10/05 05:27:00;;;;;;;17.58;7.63;;;;;;;;;;5058650;28;20025;-83
2023/10/05 05:29:35;;;;;;;47.65;8.57;;;;;;;;;;5057989;28;20552;-85
2023/10/05 05:32:19;;;;;;;;;;;;;;;;;;5038708;28;20247;-83
2023/10/05 05:34:44;;;;;;;19.52;6.28;;;;;;;;;;5058842;28;20358;-84
2023/10/05 05:37:14;;;;;;;14.52;6.10;;;;;;;;;;5057404;28;20116;-84
2023/10/05 05:39:40;;;;;;;15.55;6.28;;;;;;;;;;5057174;28;20481;-82
2023/10/05 05:42:13;;;;;;;10.60;5.68;;;;;;;;;;5064313;28;20032;-84
2023/10/05 05:44:38;;;;;;;14.02;6.32;;;;;;;;;;5064618;28;20048;-81
2023/10/05 05:47:09;;;;;;;20.70;7.40;;;;;;;;;;5077223;28;20102;-84
2023/10/05 05:49:41;;;;;;;14.85;7.35;;;;;;;;;;5058063;28;20033;-83
2023/10/05 05:52:10;;;;;;;14.05;7.10;;;;;;;;;;5055086;28;20519;-85
2023/10/05 05:54:36;;;;;;;15.73;7.72;;;;;;;;;;5055766;28;20063;-85
2023/10/05 05:57:01;;;;;;;14.15;7.47;;;;;;;;;;5057654;28;20024;-83
2023/10/05 05:59:26;;;;;;;11.32;6.50;;;;;;;;;;5057410;28;20096;-85
2023/10/05 06:01:51;;;;;;;16.50;6.75;;;;;;;;;;5057790;28;20056;-84
2023/10/05 06:04:17;;;;;;;13.90;6.60;;;;;;;;;;5065987;28;20032;-84
2023/10/05 06:06:48;;;;;;;17.02;6.93;;;;;;;;;;5064208;28;20039;-84
2023/10/05 06:09:19;;;;;;;10.75;6.80;;;;;;;;;;5056682;28;20020;-83
2023/10/05 06:11:44;;;;;;;11.60;7.30;;;;;;;;;;5056407;28;20052;-83
2023/10/05 06:14:10;;;;;;;15.98;7.05;;;;;;;;;;5056151;28;20025;-82
2023/10/05 06:16:35;;;;;;;12.30;6.40;;;;;;;;;;5056093;28;20094;-84
2023/10/05 06:19:01;;;;;;;9.05;5.43;;;;;;;;;;5071469;28;20044;-85
2023/10/05 06:21:26;;;;;;;14.45;5.45;;;;;;;;;;5055108;28;20032;-83
2023/10/05 06:23:52;;;;;;;9.48;4.93;;;;;;;;;;5055704;28;20029;-85
2023/10/05 06:26:17;;;;;;;12.48;5.40;;;;;;;;;;5039949;28;20517;-83
2023/10/05 06:28:42;;;;;;;11.35;6.00;;;;;;;;;;5057331;28;20033;-80
2023/10/05 06:31:14;;;;;;;9.27;5.78;;;;;;;;;;5053706;28;20040;-84
2023/10/05 06:33:42;;;;;;;11.80;5.35;;;;;;;;;;5054619;28;20044;-82
2023/10/05 06:36:08;;;;;;;11.52;5.32;;;;;;;;;;5057864;28;20033;-86
2023/10/05 06:38:35;;;;;;;7.95;4.65;;;;;;;;;;5060219;28;20035;-85
2023/10/05 06:41:00;;;;;;;8.05;5.70;;;;;;;;;;5056368;28;20086;-86
2023/10/05 06:43:26;;;;;;;11.38;5.78;;;;;;;;;;5057047;28;20041;-85
2023/10/05 06:45:52;;;;;;;8.57;4.88;;;;;;;;;;5056308;28;20040;-84
2023/10/05 06:48:18;;;;;;;9.32;5.28;;;;;;;;;;5054701;28;20028;-85
2023/10/05 06:50:43;;;;;;;13.32;5.45;;;;;;;;;;5038641;28;20070;-84
2023/10/05 06:53:10;;;;;;;7.53;4.68;;;;;;;;;;5056009;28;20522;-84
2023/10/05 06:55:36;;;;;;;8.95;4.55;;;;;;;;;;5055426;28;20524;-84
2023/10/05 06:58:03;;;;;;;6.97;5.05;;;;;;;;;;5055827;28;20098;-81
2023/10/05 07:00:29;;;;;;;8.82;4.65;;;;;;;;;;5056612;28;20041;-82
2023/10/05 07:02:55;;;;;;;12.25;4.35;;;;;;;;;;5056675;28;20107;-84
2023/10/05 07:05:20;;;;;;;6.97;4.00;;;;;;;;;;5056622;28;20495;-83
2023/10/05 07:07:46;;;;;;;8.00;4.45;;;;;;;;;;5037606;28;20041;-83
2023/10/05 07:10:14;;;;;;;7.60;4.90;;;;;;;;;;5055316;28;20041;-84
2023/10/05 07:12:48;;;;;;;11.05;4.70;;;;;;;;;;5055746;28;20033;-85
2023/10/05 07:15:14;;;;;;;5.93;4.32;;;;;;;;;;5054390;28;20025;-86
2023/10/05 07:17:40;;;;;;;10.05;5.45;;;;;;;;;;5056267;28;20024;-86
2023/10/05 07:20:11;;;;;;;7.78;4.40;;;;;;;;;;5036531;28;20033;-85
2023/10/05 07:22:38;;;;;;;5.57;4.22;;;;;;;;;;5054486;28;20043;-85
2023/10/05 07:25:04;;;;;;;7.05;4.05;;;;;;;;;;5054494;28;20492;-86
2023/10/05 07:27:30;;;;;;;9.90;4.72;;;;;;;;;;5054836;28;20121;-83
2023/10/05 07:29:55;;;;;;;8.82;4.78;;;;;;;;;;5055019;28;20454;-84
2023/10/05 07:32:20;;;;;;;6.95;4.47;;;;;;;;;;5055065;28;20037;-82
2023/10/05 07:34:46;;;;;;;9.13;4.53;;;;;;;;;;5036555;28;20036;-84
2023/10/05 07:37:11;;;;;;;6.38;4.18;;;;;;;;;;5055155;28;20067;-84
2023/10/05 07:39:41;;;;;;;7.47;4.25;;;;;;;;;;5054730;28;20029;-85
2023/10/05 07:42:08;;;;;;;9.07;3.90;;;;;;;;;;5055640;28;20028;-86
2023/10/05 07:44:35;;;;;;;7.07;3.90;;;;;;;;;;5055713;28;20116;-86
2023/10/05 07:47:02;;;;;;;7.97;4.00;;;;;;;;;;5042012;28;20117;-80
2023/10/05 07:49:27;;;;;;;4.40;4.00;;;;;;;;;;5058427;28;20037;-84
2023/10/05 07:51:53;;;;;;;11.20;4.15;;;;;;;;;;5055095;28;20045;-84
2023/10/05 07:54:18;;;;;;;6.55;3.78;;;;;;;;;;5055793;28;20029;-84
2023/10/05 07:56:45;;;;;;;6.18;3.60;;;;;;;;;;5059685;28;20540;-83
2023/10/05 07:59:10;;;;;;;6.15;3.70;;;;;;;;;;5056107;28;20532;-85
2023/10/05 08:01:36;;;;;;;8.13;3.55;;;;;;;;;;5055147;28;20037;-84
2023/10/05 08:04:01;;;;;;;5.90;3.55;;;;;;;;;;5055888;28;20029;-84
2023/10/05 08:06:27;;;;;;;8.82;3.80;;;;;;;;;;5055463;28;20021;-83
2023/10/05 08:08:53;;;;;;;7.38;3.35;;;;;;;;;;5056093;28;20077;-84
2023/10/05 08:11:20;;;;;;;6.10;3.03;;;;;;;;;;5059535;28;20024;-79
2023/10/05 08:13:45;;;;;;;7.18;3.38;;;;;;;;;;5070852;28;20029;-81
2023/10/05 08:16:12;;;;;;;4.45;3.13;;;;;;;;;;5052695;28;20047;-81
2023/10/05 08:18:38;;;;;;;7.60;3.30;;;;;;;;;;5067590;28;20047;-81
2023/10/05 08:21:04;;;;;;;7.45;2.70;;;;;;;;;;5066273;28;20040;-78
2023/10/05 08:23:30;;;;;;;7.80;2.75;;;;;;;;;;5068938;28;20014;-80
2023/10/05 08:25:57;;;;;;;3.80;2.80;;;;;;;;;;5049933;28;20030;-80
2023/10/05 08:28:24;;;;;;;4.38;2.60;;;;;;;;;;5073889;28;20047;-81
2023/10/05 08:31:05;;;;;;;10.23;3.03;;;;;;;;;;5054486;28;20401;-80
2023/10/05 08:33:33;;;;;;;6.45;3.38;;;;;;;;;;5071112;28;20090;-81
2023/10/05 08:36:00;;;;;;;5.57;2.75;;;;;;;;;;5070061;28;20029;-81
2023/10/05 08:38:27;;;;;;;2.90;2.40;;;;;;;;;;5071995;28;20036;-81
2023/10/05 08:40:53;;;;;;;6.32;2.53;;;;;;;;;;5069952;28;20242;-81
2023/10/05 08:43:19;;;;;;;6.55;2.78;;;;;;;;;;5071095;28;20028;-81
2023/10/05 08:45:51;;;;;;;6.28;3.17;;;;;;;;;;5061883;28;20570;-81
2023/10/05 08:48:28;;;;;;;7.32;2.97;;;;;;;;;;5070981;22;20071;-88
2023/10/05 08:50:58;;;;;;;3.97;2.88;;;;;;;;;;5052179;28;20037;-88
2023/10/05 08:53:24;;;;;;;4.03;2.53;;;;;;;;;;5031351;28;20045;-88
2023/10/05 08:55:54;;;;;;;4.07;2.85;;;;;;;;;;5029984;28;20040;-88
2023/10/05 08:58:21;;;;;;;4.15;2.83;;;;;;;;;;5030379;28;20068;-88
2023/10/05 09:00:48;;;;;;;7.80;2.63;;;;;;;;;;5030810;28;20116;-88
2023/10/05 09:03:29;;;;;;;3.95;2.85;;;;;;;;;;5033183;28;20029;-89
2023/10/05 09:06:24;;;;;;;9.40;3.55;;;;;;;;;;5034116;28;20083;-88
2023/10/05 09:08:53;;;;;;;5.22;3.22;;;;;;;;;;5033076;28;20064;-88
2023/10/05 09:11:31;;;;;;;4.32;2.78;;;;;;;;;;5033239;28;20097;-86
2023/10/05 09:14:08;;;;;;;5.30;2.85;;;;;;;;;;5033362;28;20057;-86
2023/10/05 09:16:41;;;;;;;5.93;3.10;;;;;;;;;;5021931;23;20038;-85
2023/10/05 09:19:17;;;;;;;6.55;3.30;;;;;;;;;;5012368;28;20137;-86
2023/10/05 09:22:10;;;;;;;7.57;3.63;;;;;;;;;;5016092;28;20113;-87
2023/10/05 09:24:43;;;;;;;7.20;3.88;;;;;;;;;;5017494;28;20037;-86
2023/10/05 09:27:15;;;;;;;7.55;3.15;;;;;;;;;;5018102;28;20041;-86
2023/10/05 09:29:42;;;;;;;6.15;3.20;;;;;;;;;;5025038;28;20636;-86
2023/10/05 09:32:25;;;;;;;6.88;3.25;;;;;;;;;;5026533;28;20098;-86
2023/10/05 09:34:56;;;;;;;4.80;3.20;;;;;;;;;;5030220;28;20044;-86
2023/10/05 09:37:24;;;;;;;12.27;3.83;;;;;;;;;;5028388;28;20419;-87
2023/10/05 09:39:53;;;;;;;12.93;7.78;;;;;;;;;;5028218;28;20053;-88
2023/10/05 09:42:33;;;;;;;5.03;3.20;;;;;;;;;;5026700;28;20041;-88
2023/10/05 09:45:06;;;;;;;6.00;3.92;;;;;;;;;;5049690;28;20424;-88
2023/10/05 09:47:35;;;;;;;4.45;3.25;;;;;;;;;;5031616;28;20132;-88
2023/10/05 09:50:12;;;;;;;3.75;2.85;;;;;;;;;;5010004;28;20081;-87
2023/10/05 09:52:45;;;;;;;6.28;3.25;;;;;;;;;;5012672;28;20041;-87
2023/10/05 09:55:13;;;;;;;8.23;3.08;;;;;;;;;;5020671;28;20042;-86
2023/10/05 09:57:46;;;;;;;7.07;2.90;;;;;;;;;;5030346;28;20037;-86
2023/10/05 10:02:57;;;;;;;6.75;3.00;;;;;;;;;;5027351;28;20415;-88
2023/10/05 10:05:30;;;;;;;7.18;2.90;;;;;;;;;;5032423;28;20033;-86
2023/10/05 10:08:20;;;;;;;3.50;2.73;;;;;;;;;;5030548;28;20044;-87
2023/10/05 10:11:00;;;;;;;4.80;2.70;;;;;;;;;;5023347;28;20030;-87
2023/10/05 10:13:28;;;;;;;5.22;2.90;;;;;;;;;;5022542;28;20239;-86
2023/10/05 10:15:53;;;;;;;4.28;2.70;;;;;;;;;;5024953;28;20570;-86
2023/10/05 10:18:21;;;;;;;5.30;2.70;;;;;;;;;;5020439;28;20037;-88
2023/10/05 10:20:51;;;;;;;4.13;2.60;;;;;;;;;;5021510;28;20033;-88
2023/10/05 10:23:26;;;;;;;7.22;2.92;;;;;;;;;;5021882;28;20042;-89
2023/10/05 10:26:05;;;;;;;6.72;2.88;;;;;;;;;;5023854;28;20321;-88
2023/10/05 10:31:30;;;;;;;3.55;2.55;;;;;;;;;;5024298;28;20052;-88
2023/10/05 10:34:05;;;;;;;3.50;2.60;;;;;;;;;;5012194;28;20455;-88
2023/10/05 10:36:53;;;;;;;8.55;2.88;;;;;;;;;;5018708;28;20029;-88
2023/10/05 10:39:23;;;;;;;4.32;2.50;;;;;;;;;;5003779;28;20041;-87
2023/10/05 10:42:04;;;;;;;5.03;2.80;;;;;;;;;;5005318;28;20026;-89
2023/10/05 10:47:16;;;;;;;4.97;2.60;;;;;;;;;;5007553;28;20041;-88
2023/10/05 10:49:59;;;;;;;4.75;3.00;;;;;;;;;;5007153;28;20026;-88
2023/10/05 10:52:29;;;;;;;3.60;2.65;;;;;;;;;;5007180;28;20399;-88
2023/10/05 10:54:59;;;;;;;6.30;2.53;;;;;;;;;;5001385;28;20034;-88
2023/10/05 10:57:24;;;;;;;4.95;2.65;;;;;;;;;;4994624;28;20057;-88
2023/10/05 11:00:37;;;;;;;4.38;2.50;;;;;;;;;;5012485;28;20069;-87
2023/10/05 11:02:41;;;;;;;5.05;2.40;;;;;;;;;;5009124;28;20045;-88
2023/10/05 11:05:14;;;;;;;6.93;3.25;;;;;;;;;;5012787;28;20029;-86
2023/10/05 11:07:43;;;;;;;8.93;3.08;;;;;;;;;;5013302;28;20045;-86
2023/10/05 11:10:21;;;;;;;4.43;2.78;;;;;;;;;;5021366;28;20109;-86
2023/10/05 11:12:54;;;;;;;3.72;2.65;;;;;;;;;;5027146;28;20092;-85
2023/10/05 11:15:28;;;;;;;4.65;2.90;;;;;;;;;;5028860;28;20025;-84
2023/10/05 11:17:58;;;;;;;5.70;2.70;;;;;;;;;;5009944;28;20061;-86
2023/10/05 11:20:33;;;;;;;4.72;2.92;;;;;;;;;;5014840;28;20026;-86
2023/10/05 11:23:03;;;;;;;4.05;2.47;;;;;;;;;;5018195;28;20033;-87
2023/10/05 11:25:32;;;;;;;5.60;3.28;;;;;;;;;;5007856;28;20034;-87
2023/10/05 11:27:59;;;;;;;5.70;3.53;;;;;;;;;;4991547;28;20034;-88
2023/10/05 11:30:48;;;;;;;6.53;3.30;;;;;;;;;;4998613;28;20036;-88
2023/10/05 11:33:16;;;;;;;6.05;3.38;;;;;;;;;;5029286;28;20125;-87
2023/10/05 11:35:49;;;;;;;7.85;3.35;;;;;;;;;;5023506;28;20083;-89
2023/10/05 11:38:19;;;;;;;4.38;2.97;;;;;;;;;;5004962;28;20035;-88
2023/10/05 11:40:54;;;;;;;5.32;3.00;;;;;;;;;;5009684;28;20049;-88
2023/10/05 11:43:20;;;;;;;5.82;2.80;;;;;;;;;;5011045;28;20038;-88
2023/10/05 11:46:17;;;;;;;10.65;3.58;;;;;;;;;;5020819;28;20081;-89
2023/10/05 11:48:55;;;;;;;5.78;3.72;;;;;;;;;;5011541;28;20080;-89
2023/10/05 11:51:36;;;;;;;6.95;3.38;;;;;;;;;;5008378;28;20037;-89
2023/10/05 11:54:01;;;;;;;5.95;3.10;;;;;;;;;;4994701;28;20018;-89
2023/10/05 11:56:30;;;;;;;6.22;3.20;;;;;;;;;;4992271;28;20034;-89
2023/10/05 11:59:00;;;;;;;9.70;3.10;;;;;;;;;;4991718;28;20098;-90
2023/10/05 12:01:45;;;;;;;7.63;3.30;;;;;;;;;;5003123;28;20038;-88
2023/10/05 12:04:43;;;;;;;5.10;3.05;;;;;;;;;;4992410;28;20156;-87
2023/10/05 12:07:12;;;;;;;8.85;3.22;;;;;;;;;;4999571;28;20300;-88
2023/10/05 12:09:43;;;;;;;4.40;3.10;;;;;;;;;;5000830;28;20045;-88
2023/10/05 12:12:14;;;;;;;4.60;3.40;;;;;;;;;;5006430;28;20050;-88
2023/10/05 12:14:41;;;;;;;7.25;3.22;;;;;;;;;;4999421;28;20424;-88
2023/10/05 12:17:06;;;;;;;5.25;2.65;;;;;;;;;;4994265;28;20587;-87
2023/10/05 12:19:33;;;;;;;6.53;3.05;;;;;;;;;;5006777;28;20034;-87
2023/10/05 12:22:13;;;;;;;7.00;3.38;;;;;;;;;;5017921;28;20063;-87
2023/10/05 12:24:39;;;;;;;5.07;3.08;;;;;;;;;;5023475;28;20038;-86
2023/10/05 12:27:13;;;;;;;3.97;3.00;;;;;;;;;;5027836;28;20028;-86
2023/10/05 12:29:38;;;;;;;;;;;;;;;;;;5027600;28;20026;-86
2023/10/05 12:32:08;;;;;;;5.28;2.97;;;;;;;;;;5025128;28;19913;-86
2023/10/05 12:34:35;;;;;;;5.32;2.85;;;;;;;;;;5025640;28;20088;-86
2023/10/05 12:37:00;;;;;;;9.95;4.13;;;;;;;;;;5024359;28;20033;-86
2023/10/05 12:39:29;;;;;;;8.10;3.72;;;;;;;;;;5037140;28;20530;-86
2023/10/05 12:41:54;;;;;;;6.82;3.40;;;;;;;;;;5031204;28;20029;-87
2023/10/05 12:44:20;;;;;;;5.95;3.65;;;;;;;;;;5016850;28;20041;-90
2023/10/05 12:46:47;;;;;;;6.70;3.92;;;;;;;;;;5008389;28;20045;-89
2023/10/05 12:49:16;;;;;;;3.90;3.17;;;;;;;;;;5005340;28;20030;-89
2023/10/05 12:51:44;;;;;;;7.07;3.20;;;;;;;;;;5030574;28;20117;-90
2023/10/05 12:54:18;;;;;;;6.65;3.63;;;;;;;;;;5016453;28;20104;-90
2023/10/05 12:56:45;;;;;;;10.27;3.55;;;;;;;;;;5015671;28;20237;-89
2023/10/05 12:59:10;;;;;;;8.02;3.10;;;;;;;;;;5038977;28;20026;-90
2023/10/05 13:01:41;;;;;;;8.90;3.33;;;;;;;;;;5031122;28;20084;-88
2023/10/05 13:04:11;;;;;;;6.72;3.60;;;;;;;;;;5020483;28;20120;-88
2023/10/05 13:06:38;;;;;;;10.55;3.72;;;;;;;;;;5024628;28;20590;-88
2023/10/05 13:09:04;;;;;;;4.82;3.30;;;;;;;;;;5021936;28;20057;-88
2023/10/05 13:11:32;;;;;;;7.00;3.72;;;;;;;;;;4995295;28;20080;-88
2023/10/05 13:13:57;;;;;;;7.15;3.45;;;;;;;;;;5013307;28;20041;-88
2023/10/05 13:16:23;;;;;;;8.40;3.63;;;;;;;;;;5023712;28;20411;-86
2023/10/05 13:18:54;;;;;;;5.15;3.65;;;;;;;;;;5023043;28;20041;-89
2023/10/05 13:21:22;;;;;;;7.72;3.58;;;;;;;;;;5026899;28;20044;-87
2023/10/05 13:23:47;;;;;;;5.97;3.50;;;;;;;;;;5015314;28;20326;-87
2023/10/05 13:26:16;;;;;;;9.43;3.38;;;;;;;;;;5014777;28;20057;-87
2023/10/05 13:28:41;;;;;;;6.38;3.25;;;;;;;;;;5022258;28;20045;-86
2023/10/05 13:31:07;;;;;;;6.45;3.80;;;;;;;;;;5011385;28;20445;-88
2023/10/05 13:33:39;;;;;;;12.50;4.03;;;;;;;;;;4993969;28;20086;-87
2023/10/05 13:36:06;;;;;;;9.02;4.07;;;;;;;;;;4994566;28;20089;-86
2023/10/05 13:38:33;;;;;;;5.57;3.97;;;;;;;;;;4994588;28;20072;-89
2023/10/05 13:41:13;;;;;;;7.07;3.83;;;;;;;;;;4991680;28;20050;-87
2023/10/05 13:43:39;;;;;;;7.75;3.70;;;;;;;;;;4993011;28;20037;-88
2023/10/05 13:46:22;;;;;;;11.32;4.47;;;;;;;;;;4992545;28;20378;-87
2023/10/05 13:49:01;;;;;;;5.75;3.88;;;;;;;;;;4991257;28;20030;-88
2023/10/05 13:51:29;;;;;;;9.10;4.40;;;;;;;;;;4993331;28;20049;-89
2023/10/05 13:57:00;;;;;;;10.48;4.07;;;;;;;;;;5217495;23;20128;-74
2023/10/05 13:59:26;;;;;;;7.30;4.20;;;;;;;;;;5050306;28;20051;-74
2023/10/05 14:01:54;;;;;;;5.93;4.07;;;;;;;;;;5050552;28;20497;-74
2023/10/05 14:04:20;;;;;;;8.50;3.90;;;;;;;;;;5050629;28;20039;-74
2023/10/05 14:06:46;;;;;;;10.32;5.05;;;;;;;;;;5050276;28;20029;-74
2023/10/05 14:09:16;;;;;;;9.90;4.57;;;;;;;;;;5050449;28;20024;-74
2023/10/05 14:11:41;;;;;;;11.40;4.10;;;;;;;;;;5050725;28;20074;-74
2023/10/05 14:14:09;;;;;;;8.13;3.92;;;;;;;;;;5050290;28;20025;-74
2023/10/05 14:16:49;;;;;;;9.02;4.72;;;;;;;;;;5050083;28;20493;-74
2023/10/05 14:19:28;;;;;;;8.88;4.22;;;;;;;;;;5050128;28;20060;-74
2023/10/05 14:21:56;;;;;;;6.70;3.90;;;;;;;;;;5049988;28;20029;-74
2023/10/05 14:24:21;;;;;;;6.15;4.15;;;;;;;;;;5050090;28;20029;-74
2023/10/05 14:26:54;;;;;;;5.38;3.70;;;;;;;;;;5050656;28;20098;-74
2023/10/05 14:29:20;;;;;;;6.68;3.95;;;;;;;;;;5050048;28;20036;-74
2023/10/05 14:31:51;;;;;;;9.32;4.30;;;;;;;;;;5049845;28;20037;-74
2023/10/05 14:34:18;;;;;;;7.03;4.07;;;;;;;;;;5026915;28;20041;-73
2023/10/05 14:36:44;;;;;;;13.32;4.85;;;;;;;;;;5031771;28;20493;-74
2023/10/05 14:39:21;;;;;;;11.75;4.30;;;;;;;;;;5049989;28;20021;-74
2023/10/05 14:41:48;;;;;;;8.40;4.28;;;;;;;;;;5050283;28;20048;-74
2023/10/05 14:44:13;;;;;;;9.75;4.35;;;;;;;;;;5046211;28;20025;-78
2023/10/05 14:49:07;;;;;;;15.07;4.35;;;;;;;;;;4985359;28;20037;-77
2023/10/05 14:51:34;;;;;;;13.18;4.65;;;;;;;;;;4998728;28;20056;-77
2023/10/05 14:54:00;;;;;;;8.85;4.35;;;;;;;;;;4998777;28;20477;-77
2023/10/05 14:56:25;;;;;;;6.63;3.90;;;;;;;;;;4994857;28;20030;-77
2023/10/05 14:58:51;;;;;;;7.57;4.63;;;;;;;;;;4975330;28;20403;-77
2023/10/05 15:01:19;;;;;;;13.90;4.95;;;;;;;;;;4979749;28;20045;-77
2023/10/05 15:03:45;;;;;;;9.27;4.38;;;;;;;;;;4993697;28;20033;-77
2023/10/05 15:06:11;;;;;;;8.75;5.20;;;;;;;;;;5019723;28;20429;-77
2023/10/05 15:08:36;;;;;;;8.73;4.65;;;;;;;;;;4998172;28;20032;-78
2023/10/05 15:11:05;;;;;;;9.40;4.57;;;;;;;;;;5020985;28;20574;-77
2023/10/05 15:13:31;;;;;;;10.15;4.50;;;;;;;;;;5020335;28;20515;-77
2023/10/05 15:15:56;;;;;;;10.23;4.45;;;;;;;;;;5015747;28;20176;-77
2023/10/05 15:18:22;;;;;;;7.35;4.45;;;;;;;;;;5018219;28;20060;-77